Tipton, Pennsylvania
Current Conditions -  °F | °C
As of 11:53 AM on Thursday 27 Nov 2014 (Local Time) from KAOO Reporting Station
Overcast Overcast  
Wind Chill: 27°   Ceiling: 3600
Heat Index: 32°   Visibility: 7mi
Dew Point: 30°   Wind: 5mph
Humidity: 92%   Direction: 300°WNW
Pressure: 30"   Gusts: NA
Location:  40.64°N, 78.3°W
Report Text: KAOO 271653Z AUTO 30004KT 7SM FEW018 BKN036 OVC055 00/M01 A3000 RMK AO2 SNE52 SLP176 P0005 T00001011
Loading
Personal Weather Stations






























Interactive Weather Map New forecast layout! Learn more

10-Day Weather Forecast

Advertisements
Track Severe Weather on mobile